createdAt,value
2022-08-31T00:02:16.556Z,100451.78
2022-08-31T00:04:47.764Z,100455.06
2022-08-31T00:07:18.608Z,100456.66
2022-08-31T00:09:50.171Z,100452.13
2022-08-31T00:12:22.981Z,100445.63
2022-08-31T00:14:54.517Z,100450.53
2022-08-31T00:17:27.390Z,100441.59
2022-08-31T00:19:59.026Z,100444.88
2022-08-31T00:22:30.264Z,100444.88
2022-08-31T00:25:00.824Z,100455.06
2022-08-31T00:27:31.615Z,100445.69
2022-08-31T00:30:02.433Z,100445.69
2022-08-31T00:32:34.931Z,100452.66
2022-08-31T00:35:06.061Z,100444.53
2022-08-31T00:37:37.609Z,100439.63
2022-08-31T00:40:10.060Z,100434.69
2022-08-31T00:42:41.693Z,100435.53
2022-08-31T00:45:14.661Z,100435.06
2022-08-31T00:47:47.042Z,100421.63
2022-08-31T00:50:20.618Z,100434.28
2022-08-31T00:52:59.445Z,100426.97
2022-08-31T00:55:36.397Z,100424.09
2022-08-31T00:58:13.398Z,100422.03
2022-08-31T01:00:45.566Z,100425.72
2022-08-31T01:03:20.374Z,100418.41
2022-08-31T01:05:52.304Z,100429.00
2022-08-31T01:08:27.126Z,100425.34
2022-08-31T01:11:01.701Z,100420.44
2022-08-31T01:13:34.298Z,100424.91
2022-08-31T01:16:14.566Z,100418.41
2022-08-31T01:18:49.664Z,100424.09
2022-08-31T01:21:34.771Z,100417.56
2022-08-31T01:24:09.304Z,100424.91
2022-08-31T01:26:42.557Z,100425.72
2022-08-31T01:29:20.523Z,100424.09
2022-08-31T01:31:52.090Z,100429.38
2022-08-31T01:34:22.776Z,100424.91
2022-08-31T01:36:55.160Z,100424.09
2022-08-31T01:39:28.767Z,100431.50
2022-08-31T01:41:59.618Z,100426.66
2022-08-31T01:44:31.303Z,100426.66
2022-08-31T01:47:02.042Z,100421.41
2022-08-31T01:49:33.213Z,100422.63
2022-08-31T01:52:04.169Z,100424.28
2022-08-31T01:54:36.528Z,100421.44
2022-08-31T01:57:08.138Z,100421.03
2022-08-31T01:59:38.928Z,100421.81
2022-08-31T02:02:09.716Z,100414.88
2022-08-31T02:04:40.614Z,100414.88
2022-08-31T02:07:12.388Z,100417.72
2022-08-31T02:09:45.531Z,100408.38
2022-08-31T02:12:16.664Z,100412.47
2022-08-31T02:14:47.582Z,100422.63
2022-08-31T02:17:19.134Z,100416.19
2022-08-31T02:19:49.909Z,100420.28
2022-08-31T02:22:20.686Z,100421.94
2022-08-31T02:24:52.831Z,100422.75
2022-08-31T02:27:23.778Z,100417.06
2022-08-31T02:29:55.071Z,100422.00
2022-08-31T02:32:25.644Z,100413.88
2022-08-31T02:34:56.563Z,100419.59
2022-08-31T02:37:27.271Z,100413.88
2022-08-31T02:40:00.291Z,100421.25
2022-08-31T02:42:39.406Z,100418.84
2022-08-31T02:45:22.440Z,100418.00
2022-08-31T02:47:53.597Z,100414.00
2022-08-31T02:50:26.073Z,100421.31
2022-08-31T02:52:57.328Z,100420.06
2022-08-31T02:55:31.674Z,100422.06
2022-08-31T02:58:03.035Z,100419.63
2022-08-31T03:00:34.572Z,100418.44
2022-08-31T03:03:05.546Z,100417.66
2022-08-31T03:05:36.677Z,100420.50
2022-08-31T03:08:08.427Z,100419.28
2022-08-31T03:10:40.737Z,100427.38
2022-08-31T03:13:11.590Z,100423.72
2022-08-31T03:15:42.336Z,100429.41
2022-08-31T03:18:12.858Z,100441.66
2022-08-31T03:20:43.563Z,100437.56
2022-08-31T03:23:15.932Z,100436.31
2022-08-31T03:25:48.540Z,100435.09
2022-08-31T03:28:19.542Z,100435.88
2022-08-31T03:30:49.766Z,100442.41
2022-08-31T03:33:21.074Z,100437.94
2022-08-31T03:35:53.069Z,100437.94
2022-08-31T03:38:24.625Z,100440.78
2022-08-31T03:40:58.174Z,100449.34
2022-08-31T03:43:28.878Z,100447.75
2022-08-31T03:45:59.417Z,100443.66
2022-08-31T03:48:29.367Z,100449.34
2022-08-31T03:51:00.862Z,100451.38
2022-08-31T03:53:31.530Z,100450.16
2022-08-31T03:56:05.429Z,100451.75
2022-08-31T03:58:37.133Z,100455.41
2022-08-31T04:01:08.677Z,100454.16
2022-08-31T04:03:40.519Z,100455.00
2022-08-31T04:06:14.427Z,100460.25
2022-08-31T04:08:45.646Z,100455.78
2022-08-31T04:11:25.562Z,100459.47
2022-08-31T04:14:15.389Z,100456.22
2022-08-31T04:16:46.059Z,100455.00
2022-08-31T04:19:18.913Z,100455.38
2022-08-31T04:21:50.672Z,100445.19
2022-08-31T04:24:21.869Z,100451.69
2022-08-31T04:26:55.838Z,100448.47
2022-08-31T04:29:33.145Z,100442.41
2022-08-31T04:32:05.008Z,100457.91
2022-08-31T04:34:40.185Z,100453.81
2022-08-31T04:37:14.945Z,100453.00
2022-08-31T04:39:49.436Z,100462.78
2022-08-31T04:42:24.432Z,100471.78
2022-08-31T04:44:54.810Z,100470.63
2022-08-31T04:47:25.533Z,100467.81
2022-08-31T04:49:56.084Z,100467.81
2022-08-31T04:52:28.305Z,100488.59
2022-08-31T04:54:59.372Z,100490.63
2022-08-31T04:57:31.853Z,100493.13
2022-08-31T05:00:02.546Z,100487.47
2022-08-31T05:02:52.715Z,100485.88
2022-08-31T05:05:23.260Z,100487.09
2022-08-31T05:07:53.848Z,100489.97
2022-08-31T05:10:25.285Z,100496.47
2022-08-31T05:12:58.451Z,100498.06
2022-08-31T05:15:29.714Z,100509.88
2022-08-31T05:18:00.453Z,100500.06
2022-08-31T05:20:31.637Z,100505.34
2022-08-31T05:23:02.721Z,100502.03
2022-08-31T05:25:33.939Z,100508.13
2022-08-31T05:28:08.929Z,100513.75
2022-08-31T05:30:40.241Z,100510.50
2022-08-31T05:33:10.957Z,100508.03
2022-08-31T05:35:41.733Z,100510.81
2022-08-31T05:38:11.701Z,100506.72
2022-08-31T05:40:42.770Z,100512.03
2022-08-31T05:43:16.120Z,100507.47
2022-08-31T05:45:46.827Z,100502.59
2022-08-31T05:48:17.739Z,100501.72
2022-08-31T05:50:57.438Z,100506.56
2022-08-31T05:53:28.613Z,100503.25
2022-08-31T05:56:04.826Z,100513.44
2022-08-31T05:58:37.692Z,100504.47
2022-08-31T06:01:15.950Z,100504.81
2022-08-31T06:03:46.693Z,100505.19
2022-08-31T06:06:19.790Z,100501.47
2022-08-31T06:08:52.288Z,100507.97
2022-08-31T06:11:25.951Z,100510.75
2022-08-31T06:14:01.710Z,100521.31
2022-08-31T06:16:33.859Z,100512.69
2022-08-31T06:19:07.771Z,100510.50
2022-08-31T06:21:49.303Z,100512.06
2022-08-31T06:24:22.066Z,100501.38
2022-08-31T06:26:59.645Z,100510.69
2022-08-31T06:29:36.775Z,100504.06
2022-08-31T06:32:10.724Z,100502.28
2022-08-31T06:34:42.919Z,100510.75
2022-08-31T06:37:19.062Z,100516.31
2022-08-31T06:39:50.330Z,100512.50
2022-08-31T06:42:21.509Z,100513.59
2022-08-31T06:44:55.235Z,100510.63
2022-08-31T06:47:26.719Z,100522.34
2022-08-31T06:49:58.815Z,100517.34
2022-08-31T06:52:29.681Z,100505.41
2022-08-31T06:55:00.222Z,100518.38
2022-08-31T06:57:31.278Z,100515.81
2022-08-31T07:00:05.337Z,100513.25
2022-08-31T07:02:36.880Z,100516.34
2022-08-31T07:05:09.709Z,100516.22
2022-08-31T07:07:54.690Z,100519.38
2022-08-31T07:10:25.550Z,100515.19
2022-08-31T07:12:56.345Z,100511.09
2022-08-31T07:15:30.488Z,100509.41
2022-08-31T07:18:01.669Z,100511.78
2022-08-31T07:20:33.687Z,100515.47
2022-08-31T07:23:05.178Z,100501.09
2022-08-31T07:25:35.801Z,100511.19
2022-08-31T07:28:07.062Z,100518.06
2022-08-31T07:30:40.442Z,100512.63
2022-08-31T07:33:11.530Z,100512.44
2022-08-31T07:35:43.440Z,100516.41
2022-08-31T07:38:31.754Z,100499.09
2022-08-31T07:41:19.060Z,100506.31
2022-08-31T07:43:50.025Z,100504.19
2022-08-31T07:46:24.652Z,100501.94
2022-08-31T07:48:56.503Z,100509.53
2022-08-31T07:51:27.582Z,100498.81
2022-08-31T07:53:59.499Z,100499.59
2022-08-31T07:56:34.822Z,100502.13
2022-08-31T07:59:07.992Z,100496.03
2022-08-31T08:01:45.857Z,100505.41
2022-08-31T08:04:22.336Z,100497.66
2022-08-31T08:06:56.461Z,100502.13
2022-08-31T08:09:28.909Z,100488.97
2022-08-31T08:12:07.413Z,100488.88
2022-08-31T08:14:41.150Z,100483.03
2022-08-31T08:17:14.458Z,100486.97
2022-08-31T08:19:46.029Z,100484.03
2022-08-31T08:22:30.644Z,100486.81
2022-08-31T08:25:11.954Z,100491.34
2022-08-31T08:27:46.768Z,100484.75
2022-08-31T08:30:25.075Z,100484.22
2022-08-31T08:33:04.159Z,100474.25
2022-08-31T08:35:36.980Z,100476.56
2022-08-31T08:38:08.118Z,100470.28
2022-08-31T08:40:44.148Z,100468.94
2022-08-31T08:43:20.211Z,100464.81
2022-08-31T08:45:55.642Z,100456.66
2022-08-31T08:48:38.427Z,100457.47
2022-08-31T08:51:19.015Z,100457.84
2022-08-31T08:53:55.389Z,100450.50
2022-08-31T08:56:33.400Z,100448.06
2022-08-31T08:59:09.958Z,100450.13
2022-08-31T09:01:48.407Z,100446.81
2022-08-31T09:04:41.766Z,100442.69
2022-08-31T09:07:49.843Z,100432.03
2022-08-31T09:10:34.435Z,100429.50
2022-08-31T09:13:26.339Z,100430.56
2022-08-31T09:16:13.584Z,100430.94
2022-08-31T09:18:55.673Z,100423.84
2022-08-31T09:21:31.681Z,100426.16
2022-08-31T09:24:06.796Z,100421.69
2022-08-31T09:27:10.876Z,100417.63
2022-08-31T09:29:45.589Z,100412.38
2022-08-31T09:32:26.310Z,100404.56
2022-08-31T09:35:02.798Z,100407.44
2022-08-31T09:37:45.459Z,100406.16
2022-08-31T09:40:24.813Z,100404.91
2022-08-31T09:43:08.840Z,100405.81
2022-08-31T09:45:57.520Z,100400.09
2022-08-31T09:48:52.450Z,100395.19
2022-08-31T09:51:30.732Z,100393.56
2022-08-31T09:54:27.495Z,100391.13
2022-08-31T09:57:01.806Z,100399.41
2022-08-31T09:59:40.613Z,100388.28
2022-08-31T10:02:29.122Z,100401.69
2022-08-31T10:05:04.354Z,100394.72
2022-08-31T10:07:48.861Z,100392.31
2022-08-31T10:10:40.107Z,100386.56
2022-08-31T10:13:21.144Z,100402.47
2022-08-31T10:15:58.297Z,100396.31
2022-08-31T10:18:40.141Z,100386.84
2022-08-31T10:21:21.651Z,100386.03
2022-08-31T10:24:11.311Z,100388.53
2022-08-31T10:27:39.351Z,100382.88
2022-08-31T10:30:20.982Z,100374.06
2022-08-31T10:33:07.277Z,100383.13
2022-08-31T10:35:52.514Z,100379.44
2022-08-31T10:38:39.153Z,100384.38
2022-08-31T10:41:21.691Z,100386.41
2022-08-31T10:44:09.235Z,100378.28
2022-08-31T10:46:40.585Z,100372.56
2022-08-31T10:49:29.160Z,100367.53
2022-08-31T10:52:12.752Z,100374.06
2022-08-31T10:55:25.231Z,100373.25
2022-08-31T10:58:08.545Z,100372.56
2022-08-31T11:00:54.029Z,100367.72
2022-08-31T11:04:02.824Z,100373.47
2022-08-31T11:06:46.920Z,100374.63
2022-08-31T11:10:50.482Z,100374.28
2022-08-31T11:13:51.942Z,100361.22
2022-08-31T11:17:11.997Z,100366.16
2022-08-31T11:20:34.129Z,100361.66
2022-08-31T11:23:56.251Z,100358.34
2022-08-31T11:26:57.822Z,100359.59
2022-08-31T11:29:55.378Z,100349.84
2022-08-31T11:36:07.816Z,100343.66
2022-08-31T11:38:52.693Z,100341.69
2022-08-31T11:45:06.961Z,100338.50
2022-08-31T11:47:47.335Z,100339.41
2022-08-31T11:51:07.651Z,100332.97
2022-08-31T11:53:45.257Z,100328.97
2022-08-31T11:56:18.265Z,100331.16
2022-08-31T11:58:54.200Z,100317.75
2022-08-31T12:01:45.087Z,100329.53
2022-08-31T12:05:03.436Z,100319.00
2022-08-31T12:07:53.108Z,100323.09
2022-08-31T12:10:54.987Z,100314.25
2022-08-31T12:13:50.315Z,100308.63
2022-08-31T12:16:40.405Z,100306.66
2022-08-31T12:19:51.337Z,100301.88
2022-08-31T12:23:30.700Z,100307.22
2022-08-31T12:26:26.343Z,100305.63
2022-08-31T12:29:31.691Z,100296.56
2022-08-31T12:32:26.532Z,100299.00
2022-08-31T12:35:13.924Z,100296.94
2022-08-31T12:37:45.057Z,100293.28
2022-08-31T12:40:24.278Z,100292.47
2022-08-31T12:43:14.471Z,100289.59
2022-08-31T12:46:35.786Z,100284.34
2022-08-31T12:49:47.102Z,100285.69
2022-08-31T12:52:45.449Z,100280.97
2022-08-31T12:55:38.266Z,100280.16
2022-08-31T12:58:42.625Z,100275.72
2022-08-31T13:01:21.079Z,100285.88
2022-08-31T13:03:58.087Z,100282.69
2022-08-31T13:06:33.241Z,100286.44
2022-08-31T13:09:06.640Z,100279.69
2022-08-31T13:11:43.281Z,100282.31
2022-08-31T13:14:21.345Z,100276.56
2022-08-31T13:16:55.003Z,100274.16
2022-08-31T13:19:30.180Z,100278.25
2022-08-31T13:22:05.890Z,100287.75
2022-08-31T13:24:42.299Z,100291.03
2022-08-31T13:27:23.278Z,100283.69
2022-08-31T13:30:02.847Z,100292.75
2022-08-31T13:32:37.070Z,100286.78
2022-08-31T13:35:17.233Z,100290.19
2022-08-31T13:38:04.753Z,100282.97
2022-08-31T13:40:41.109Z,100282.25
2022-08-31T13:43:21.215Z,100283.97
2022-08-31T13:46:01.863Z,100282.00
2022-08-31T13:48:41.068Z,100271.91
2022-08-31T13:51:24.167Z,100278.88
2022-08-31T13:54:13.255Z,100280.13
2022-08-31T13:56:59.380Z,100280.22
2022-08-31T13:59:38.724Z,100283.56
2022-08-31T14:02:39.988Z,100283.19
2022-08-31T14:05:13.195Z,100280.78
2022-08-31T14:08:03.989Z,100287.31
2022-08-31T14:10:44.165Z,100287.38
2022-08-31T14:13:28.305Z,100274.41
2022-08-31T14:16:09.893Z,100271.56
2022-08-31T14:18:45.943Z,100273.16
2022-08-31T14:21:24.321Z,100275.22
2022-08-31T14:24:01.965Z,100277.72
2022-08-31T14:26:37.319Z,100283.88
2022-08-31T14:29:11.465Z,100274.63
2022-08-31T14:31:48.926Z,100273.00
2022-08-31T14:34:49.492Z,100281.22
2022-08-31T14:37:24.528Z,100279.69
2022-08-31T14:40:00.217Z,100275.69
2022-08-31T14:42:38.328Z,100275.31
2022-08-31T14:45:19.220Z,100277.47
2022-08-31T14:47:53.772Z,100272.28
2022-08-31T14:50:28.517Z,100280.97
2022-08-31T14:53:01.366Z,100281.47
2022-08-31T14:55:32.517Z,100282.81
2022-08-31T14:58:09.036Z,100280.03
2022-08-31T15:00:51.183Z,100277.16
2022-08-31T15:03:24.963Z,100270.22
2022-08-31T15:05:58.366Z,100273.06
2022-08-31T15:08:38.089Z,100268.69
2022-08-31T15:11:11.332Z,100268.31
2022-08-31T15:13:42.402Z,100275.28
2022-08-31T15:16:15.071Z,100274.13
2022-08-31T15:18:47.100Z,100269.75
2022-08-31T15:21:20.190Z,100281.28
2022-08-31T15:23:51.484Z,100278.84
2022-08-31T15:26:24.533Z,100279.66
2022-08-31T15:28:57.432Z,100278.03
2022-08-31T15:31:32.087Z,100285.47
2022-08-31T15:34:05.986Z,100278.22
2022-08-31T15:36:41.086Z,100280.34
2022-08-31T15:39:11.774Z,100285.22
2022-08-31T15:41:42.865Z,100284.44
2022-08-31T15:44:13.655Z,100276.66
2022-08-31T15:47:03.383Z,100285.22
2022-08-31T15:49:34.862Z,100288.91
2022-08-31T15:52:11.896Z,100288.47
2022-08-31T15:54:43.930Z,100291.31
2022-08-31T15:57:16.581Z,100295.88
2022-08-31T15:59:47.745Z,100296.41
2022-08-31T16:02:21.862Z,100293.97
2022-08-31T16:04:58.260Z,100296.84
2022-08-31T16:07:31.386Z,100293.19
2022-08-31T16:10:02.182Z,100302.16
2022-08-31T16:12:33.688Z,100295.75
2022-08-31T16:15:05.005Z,100300.28
2022-08-31T16:17:36.554Z,100299.91
2022-08-31T16:20:09.066Z,100308.09
2022-08-31T16:22:43.461Z,100296.69
2022-08-31T16:25:17.071Z,100308.47
2022-08-31T16:27:52.696Z,100303.56
2022-08-31T16:30:23.607Z,100304.78
2022-08-31T16:32:59.365Z,100314.59
2022-08-31T16:35:29.997Z,100317.13
2022-08-31T16:38:03.425Z,100321.22
2022-08-31T16:40:34.442Z,100322.81
2022-08-31T16:43:06.605Z,100325.69
2022-08-31T16:45:43.916Z,100330.94
2022-08-31T16:48:31.631Z,100331.03
2022-08-31T16:51:03.932Z,100334.75
2022-08-31T16:53:36.960Z,100344.13
2022-08-31T16:56:09.108Z,100342.88
2022-08-31T16:58:52.706Z,100349.41
2022-08-31T17:01:28.879Z,100351.81
2022-08-31T17:04:02.692Z,100347.78
2022-08-31T17:06:39.847Z,100351.88
2022-08-31T17:09:17.472Z,100349.03
2022-08-31T17:11:53.222Z,100360.06
2022-08-31T17:14:32.784Z,100352.81
2022-08-31T17:17:06.931Z,100361.84
2022-08-31T17:19:40.307Z,100363.09
2022-08-31T17:22:22.524Z,100361.38
2022-08-31T17:24:58.142Z,100365.06
2022-08-31T17:27:29.796Z,100367.84
2022-08-31T17:30:01.531Z,100371.94
2022-08-31T17:32:33.137Z,100365.78
2022-08-31T17:35:04.874Z,100374.34
2022-08-31T17:37:39.001Z,100371.50
2022-08-31T17:40:17.230Z,100372.72
2022-08-31T17:42:49.086Z,100376.84
2022-08-31T17:45:21.789Z,100379.72
2022-08-31T17:47:55.299Z,100385.84
2022-08-31T17:50:27.266Z,100388.31
2022-08-31T17:53:01.925Z,100381.81
2022-08-31T17:55:34.633Z,100385.53
2022-08-31T17:58:06.500Z,100394.94
2022-08-31T18:00:37.641Z,100383.06
2022-08-31T18:03:10.625Z,100396.97
2022-08-31T18:05:45.582Z,100401.06
2022-08-31T18:08:17.551Z,100393.72
2022-08-31T18:10:56.088Z,100387.22
2022-08-31T18:13:26.953Z,100393.47
2022-08-31T18:15:56.911Z,100398.34
2022-08-31T18:18:28.250Z,100405.31
2022-08-31T18:21:03.212Z,100399.97
2022-08-31T18:23:34.211Z,100406.91
2022-08-31T18:26:22.021Z,100405.75
2022-08-31T18:28:53.852Z,100400.13
2022-08-31T18:31:30.847Z,100398.50
2022-08-31T18:34:02.597Z,100397.69
2022-08-31T18:36:39.082Z,100389.13
2022-08-31T18:39:29.687Z,100390.34
2022-08-31T18:42:32.163Z,100388.31
2022-08-31T18:45:20.884Z,100396.88
2022-08-31T18:48:23.779Z,100389.19
2022-08-31T18:50:53.089Z,100387.56
2022-08-31T18:53:28.412Z,100388.81
2022-08-31T18:56:07.837Z,100398.19
2022-08-31T18:58:42.581Z,100390.81
2022-08-31T19:01:16.187Z,100381.00
2022-08-31T19:03:48.442Z,100383.47
2022-08-31T19:06:24.341Z,100386.78
2022-08-31T19:08:55.609Z,100385.97
2022-08-31T19:11:27.802Z,100385.53
2022-08-31T19:14:02.299Z,100380.63
2022-08-31T19:16:34.678Z,100389.19
2022-08-31T19:19:05.744Z,100384.72
2022-08-31T19:21:40.433Z,100381.06
2022-08-31T19:24:16.509Z,100383.56
2022-08-31T19:26:50.867Z,100374.53
2022-08-31T19:29:27.243Z,100369.66
2022-08-31T19:34:49.476Z,100375.44
2022-08-31T19:37:20.673Z,100384.41
2022-08-31T19:39:51.616Z,100375.06
2022-08-31T19:42:40.181Z,100366.50
2022-08-31T19:45:41.047Z,100380.31
2022-08-31T19:48:09.829Z,100377.47
2022-08-31T19:50:42.092Z,100372.59
2022-08-31T19:53:20.397Z,100380.69
2022-08-31T19:55:55.616Z,100382.75
2022-08-31T19:58:26.856Z,100386.03
2022-08-31T20:01:01.478Z,100386.47
2022-08-31T20:03:34.573Z,100393.84
2022-08-31T20:06:10.498Z,100403.63
2022-08-31T20:08:42.541Z,100401.56
2022-08-31T20:11:19.396Z,100397.09
2022-08-31T20:13:53.201Z,100399.16
2022-08-31T20:16:33.731Z,100401.66
2022-08-31T20:19:06.047Z,100387.00
2022-08-31T20:21:41.425Z,100398.00
2022-08-31T20:24:15.946Z,100399.16
2022-08-31T20:26:52.064Z,100395.44
2022-08-31T20:29:24.210Z,100398.28
2022-08-31T20:31:57.818Z,100398.97
2022-08-31T20:34:30.729Z,100401.44
2022-08-31T20:37:03.798Z,100405.44
2022-08-31T20:39:37.602Z,100400.13
2022-08-31T20:42:08.554Z,100398.06
2022-08-31T20:44:49.070Z,100387.09
2022-08-31T20:47:38.967Z,100396.44
2022-08-31T20:50:11.881Z,100411.53
2022-08-31T20:52:42.865Z,100410.28
2022-08-31T20:55:14.768Z,100402.88
2022-08-31T20:57:48.051Z,100402.06
2022-08-31T21:00:20.213Z,100401.28
2022-08-31T21:02:53.467Z,100400.13
2022-08-31T21:05:37.767Z,100402.59
2022-08-31T21:08:09.845Z,100397.34
2022-08-31T21:10:41.431Z,100395.34
2022-08-31T21:13:15.751Z,100395.75
2022-08-31T21:15:50.058Z,100392.13
2022-08-31T21:18:23.585Z,100390.06
2022-08-31T21:20:58.010Z,100385.97
2022-08-31T21:23:32.971Z,100391.25
2022-08-31T21:26:04.763Z,100395.72
2022-08-31T21:28:34.941Z,100389.56
2022-08-31T21:31:18.559Z,100387.09
2022-08-31T21:34:05.163Z,100388.69
2022-08-31T21:36:39.298Z,100377.28
2022-08-31T21:39:14.703Z,100383.78
2022-08-31T21:41:47.905Z,100378.06
2022-08-31T21:44:22.503Z,100373.59
2022-08-31T21:46:53.942Z,100374.84
2022-08-31T21:49:26.866Z,100369.97
2022-08-31T21:52:00.652Z,100374.84
2022-08-31T21:54:33.488Z,100367.53
2022-08-31T21:57:06.709Z,100359.78
2022-08-31T21:59:39.766Z,100355.31
2022-08-31T22:02:15.013Z,100356.94
2022-08-31T22:04:48.682Z,100364.66
2022-08-31T22:07:20.545Z,100369.59
2022-08-31T22:09:52.047Z,100370.38
2022-08-31T22:12:26.270Z,100360.56
2022-08-31T22:14:57.884Z,100359.78
2022-08-31T22:17:48.326Z,100355.31
2022-08-31T22:20:22.905Z,100363.88
2022-08-31T22:22:53.717Z,100349.63
2022-08-31T22:25:26.072Z,100321.88
2022-08-31T22:27:57.465Z,100328.84
2022-08-31T22:30:28.760Z,100326.00
2022-08-31T22:32:59.233Z,100314.59
2022-08-31T22:35:32.235Z,100324.38
2022-08-31T22:38:03.994Z,100337.81
2022-08-31T22:40:35.291Z,100329.72
2022-08-31T22:43:06.539Z,100318.31
2022-08-31T22:45:37.611Z,100316.25
2022-08-31T22:48:09.304Z,100317.47
2022-08-31T22:50:42.401Z,100329.78
2022-08-31T22:53:13.600Z,100333.06
2022-08-31T22:55:45.662Z,100333.47
2022-08-31T22:58:16.722Z,100337.56
2022-08-31T23:00:48.835Z,100351.84
2022-08-31T23:03:20.321Z,100345.75
2022-08-31T23:05:53.579Z,100350.66
2022-08-31T23:08:24.714Z,100336.41
2022-08-31T23:10:56.810Z,100342.13
2022-08-31T23:13:48.107Z,100330.69
2022-08-31T23:16:20.355Z,100342.19
2022-08-31T23:18:56.582Z,100340.56
2022-08-31T23:21:31.910Z,100343.44
2022-08-31T23:24:05.909Z,100336.91
2022-08-31T23:26:39.310Z,100344.66
2022-08-31T23:29:11.330Z,100344.66
2022-08-31T23:31:44.020Z,100333.25
2022-08-31T23:34:14.934Z,100340.19
2022-08-31T23:36:50.907Z,100340.56
2022-08-31T23:39:24.191Z,100341.81
2022-08-31T23:41:56.383Z,100346.69
2022-08-31T23:44:28.386Z,100340.66
2022-08-31T23:46:59.782Z,100326.38
2022-08-31T23:49:30.594Z,100327.16
2022-08-31T23:52:02.778Z,100334.13
2022-08-31T23:54:37.938Z,100340.66
2022-08-31T23:57:31.454Z,100321.91
